createdAt,value
2018-03-24T00:01:32.548Z,19.10
2018-03-24T00:03:36.585Z,17.90
2018-03-24T00:05:42.817Z,16.20
2018-03-24T00:07:46.880Z,18.70
2018-03-24T00:09:50.994Z,13.20
2018-03-24T00:12:03.716Z,13.20
2018-03-24T00:14:14.100Z,15.43
2018-03-24T00:16:20.285Z,15.87
2018-03-24T00:18:26.599Z,14.13
2018-03-24T00:20:35.123Z,19.20
2018-03-24T00:22:41.441Z,16.43
2018-03-24T00:24:45.469Z,22.10
2018-03-24T00:26:53.564Z,14.23
2018-03-24T00:29:02.077Z,15.13
2018-03-24T00:31:06.141Z,12.33
2018-03-24T00:33:21.293Z,19.47
2018-03-24T00:35:32.086Z,16.73
2018-03-24T00:37:42.938Z,17.10
2018-03-24T00:39:53.691Z,15.80
2018-03-24T00:42:06.154Z,15.03
2018-03-24T00:44:21.352Z,17.27
2018-03-24T00:46:31.914Z,16.73
2018-03-24T00:48:40.379Z,15.57
2018-03-24T00:50:44.437Z,15.30
2018-03-24T00:52:50.733Z,18.20
2018-03-24T00:54:57.012Z,15.80
2018-03-24T00:57:01.081Z,15.87
2018-03-24T00:59:14.071Z,14.57
2018-03-24T01:01:22.315Z,12.43
2018-03-24T01:03:28.658Z,14.90
2018-03-24T01:05:41.414Z,14.53
2018-03-24T01:07:45.482Z,17.27
2018-03-24T01:09:51.823Z,18.23
2018-03-24T01:11:58.084Z,16.30
2018-03-24T01:14:04.367Z,14.40
2018-03-24T01:16:10.622Z,16.93
2018-03-24T01:18:14.647Z,19.40
2018-03-24T01:20:22.863Z,14.33
2018-03-24T01:22:28.866Z,17.63
2018-03-24T01:24:35.174Z,19.40
2018-03-24T01:26:41.482Z,16.87
2018-03-24T01:28:45.503Z,14.10
2018-03-24T01:30:49.586Z,15.67
2018-03-24T01:32:55.863Z,15.47
2018-03-24T01:35:06.137Z,16.20
2018-03-24T01:37:14.662Z,17.43
2018-03-24T01:39:18.691Z,13.90
2018-03-24T01:41:22.723Z,16.03
2018-03-24T01:43:31.152Z,19.13
2018-03-24T01:45:43.768Z,16.90
2018-03-24T01:47:47.777Z,14.60
2018-03-24T01:49:53.846Z,20.47
2018-03-24T01:52:04.246Z,14.17
2018-03-24T01:54:10.285Z,17.27
2018-03-24T01:56:16.296Z,16.20
2018-03-24T01:58:22.478Z,13.83
2018-03-24T02:00:28.709Z,16.03
2018-03-24T02:02:34.968Z,14.80
2018-03-24T02:04:38.990Z,15.20
2018-03-24T02:06:45.243Z,15.77
2018-03-24T02:08:49.291Z,17.63
2018-03-24T02:11:04.583Z,14.50
2018-03-24T02:13:08.620Z,17.00
2018-03-24T02:15:12.641Z,16.80
2018-03-24T02:17:25.730Z,23.30
2018-03-24T02:19:36.093Z,16.10
2018-03-24T02:21:44.244Z,15.70
2018-03-24T02:23:52.653Z,17.20
2018-03-24T02:26:00.930Z,17.03
2018-03-24T02:28:07.300Z,18.00
2018-03-24T02:30:15.932Z,19.97
2018-03-24T02:32:26.714Z,18.20
2018-03-24T02:34:30.770Z,18.87
2018-03-24T02:36:43.761Z,16.53
2018-03-24T02:38:52.287Z,18.87
2018-03-24T02:41:00.643Z,14.70
2018-03-24T02:43:04.672Z,21.10
2018-03-24T02:45:10.974Z,17.33
2018-03-24T02:47:17.289Z,18.40
2018-03-24T02:49:29.755Z,19.03
2018-03-24T02:51:35.994Z,18.20
2018-03-24T02:53:42.250Z,21.10
2018-03-24T02:55:54.937Z,19.00
2018-03-24T02:58:01.231Z,18.33
2018-03-24T03:00:07.256Z,15.33
2018-03-24T03:02:13.482Z,20.33
2018-03-24T03:04:21.977Z,20.43
2018-03-24T03:06:28.250Z,20.37
2018-03-24T03:08:32.288Z,18.47
2018-03-24T03:10:40.875Z,18.70
2018-03-24T03:12:44.885Z,24.10
2018-03-24T03:14:50.996Z,19.60
2018-03-24T03:16:57.338Z,21.23
2018-03-24T03:19:05.905Z,22.23
2018-03-24T03:21:14.505Z,26.27
2018-03-24T03:23:18.574Z,19.80
2018-03-24T03:25:24.898Z,21.20
2018-03-24T03:27:31.196Z,21.63
2018-03-24T03:29:42.245Z,21.70
2018-03-24T03:31:46.439Z,19.43
2018-03-24T03:33:52.595Z,18.43
2018-03-24T03:35:58.865Z,19.20
2018-03-24T03:38:02.954Z,26.90
2018-03-24T03:40:11.514Z,20.63
2018-03-24T03:42:17.854Z,21.07
2018-03-24T03:44:21.906Z,23.50
2018-03-24T03:46:26.016Z,20.77
2018-03-24T03:48:38.962Z,20.00
2018-03-24T03:50:47.446Z,20.97
2018-03-24T03:52:55.537Z,19.83
2018-03-24T03:55:04.045Z,25.50
2018-03-24T03:57:17.156Z,21.67
2018-03-24T03:59:23.505Z,21.47
2018-03-24T04:01:31.987Z,23.70
2018-03-24T04:03:38.413Z,28.63
2018-03-24T04:05:44.654Z,24.90
2018-03-24T04:07:48.718Z,22.87
2018-03-24T04:10:01.450Z,21.30
2018-03-24T04:12:07.598Z,24.70
2018-03-24T04:14:16.033Z,22.10
2018-03-24T04:16:24.173Z,22.17
2018-03-24T04:18:30.495Z,21.77
2018-03-24T04:20:39.062Z,28.77
2018-03-24T04:22:47.743Z,25.00
2018-03-24T04:25:00.350Z,34.73
2018-03-24T04:27:04.365Z,28.27
2018-03-24T04:29:08.433Z,26.20
2018-03-24T04:31:14.830Z,22.43
2018-03-24T04:33:18.870Z,15.60
2018-03-24T04:35:25.162Z,19.40
2018-03-24T04:37:37.694Z,20.80
2018-03-24T04:39:44.028Z,21.70
2018-03-24T04:41:52.350Z,23.20
2018-03-24T04:44:02.827Z,20.37
2018-03-24T04:46:17.541Z,23.77
2018-03-24T04:48:21.616Z,19.20
2018-03-24T04:50:27.926Z,20.00
2018-03-24T04:52:36.634Z,20.63
2018-03-24T04:54:42.911Z,19.03
2018-03-24T04:56:49.202Z,20.33
2018-03-24T04:58:53.371Z,17.67
2018-03-24T05:01:05.844Z,21.60
2018-03-24T05:03:14.452Z,20.37
2018-03-24T05:05:27.107Z,19.67
2018-03-24T05:07:31.140Z,20.30
2018-03-24T05:09:39.503Z,20.73
2018-03-24T05:11:50.115Z,24.57
2018-03-24T05:13:56.136Z,26.17
2018-03-24T05:16:02.553Z,22.30
2018-03-24T05:18:06.576Z,20.83
2018-03-24T05:20:12.908Z,21.00
2018-03-24T05:22:23.416Z,24.83
2018-03-24T05:24:29.707Z,26.30
2018-03-24T05:26:34.018Z,23.50
2018-03-24T05:28:46.910Z,23.00
2018-03-24T05:30:57.701Z,25.20
2018-03-24T05:33:03.805Z,24.40
2018-03-24T05:35:09.836Z,27.07
2018-03-24T05:37:18.188Z,26.80
2018-03-24T05:39:26.658Z,28.80
2018-03-24T05:41:32.968Z,26.43
2018-03-24T05:43:42.531Z,25.10
2018-03-24T05:45:46.551Z,26.50
2018-03-24T05:47:52.512Z,27.70
2018-03-24T05:49:58.519Z,25.90
2018-03-24T05:52:04.789Z,27.33
2018-03-24T05:54:10.765Z,27.00
2018-03-24T05:56:27.844Z,28.40
2018-03-24T05:58:38.402Z,27.83
2018-03-24T06:00:42.442Z,31.00
2018-03-24T06:02:48.690Z,25.63
2018-03-24T06:04:54.882Z,29.60
2018-03-24T06:07:01.173Z,28.87
2018-03-24T06:09:05.268Z,28.67
2018-03-24T06:11:11.297Z,25.27
2018-03-24T06:13:15.362Z,34.30
2018-03-24T06:15:23.580Z,26.40
2018-03-24T06:17:27.704Z,30.07
2018-03-24T06:19:31.770Z,26.73
2018-03-24T06:21:35.789Z,31.80
2018-03-24T06:23:42.112Z,26.37
2018-03-24T06:25:50.637Z,25.17
2018-03-24T06:27:54.759Z,28.33
2018-03-24T06:30:17.064Z,31.83
2018-03-24T06:32:23.480Z,25.60
2018-03-24T06:34:31.980Z,25.77
2018-03-24T06:36:36.036Z,27.33
2018-03-24T06:38:46.797Z,26.30
2018-03-24T06:40:52.702Z,25.17
2018-03-24T06:42:59.091Z,27.90
2018-03-24T06:45:05.386Z,30.23
2018-03-24T06:47:11.449Z,25.37
2018-03-24T06:49:25.133Z,26.60
2018-03-24T06:51:35.805Z,26.00
2018-03-24T06:53:40.048Z,26.97
2018-03-24T06:55:50.895Z,24.73
2018-03-24T06:57:54.909Z,26.53
2018-03-24T07:00:02.983Z,25.70
2018-03-24T07:02:13.601Z,35.73
2018-03-24T07:04:22.156Z,25.97
2018-03-24T07:06:28.166Z,29.97
2018-03-24T07:08:32.173Z,24.57
2018-03-24T07:10:41.259Z,24.80
2018-03-24T07:12:45.293Z,20.40
2018-03-24T07:14:53.961Z,32.47
2018-03-24T07:17:02.575Z,22.43
2018-03-24T07:19:08.795Z,24.47
2018-03-24T07:21:19.448Z,23.37
2018-03-24T07:23:23.658Z,23.00
2018-03-24T07:25:34.080Z,22.30
2018-03-24T07:27:38.146Z,27.13
2018-03-24T07:29:42.217Z,24.30
2018-03-24T07:31:57.371Z,26.50
2018-03-24T07:34:08.010Z,27.10
2018-03-24T07:36:17.417Z,25.67
2018-03-24T07:38:23.567Z,28.07
2018-03-24T07:40:56.041Z,25.90
2018-03-24T07:43:03.190Z,24.90
2018-03-24T07:45:09.470Z,27.80
2018-03-24T07:47:17.987Z,28.13
2018-03-24T07:49:26.146Z,28.37
2018-03-24T07:51:30.239Z,24.10
2018-03-24T07:53:38.781Z,25.10
2018-03-24T07:55:44.998Z,23.13
2018-03-24T07:58:01.032Z,28.40
2018-03-24T08:00:11.748Z,21.97
2018-03-24T08:02:17.991Z,20.87
2018-03-24T08:04:28.703Z,20.57
2018-03-24T08:06:35.040Z,23.20
2018-03-24T08:08:45.488Z,20.63
2018-03-24T08:10:56.146Z,21.63
2018-03-24T08:13:06.736Z,20.33
2018-03-24T08:15:24.098Z,19.77
2018-03-24T08:17:30.427Z,20.00
2018-03-24T08:19:36.367Z,20.27
2018-03-24T08:21:42.686Z,27.53
2018-03-24T08:23:48.937Z,24.67
2018-03-24T08:25:57.373Z,18.63
2018-03-24T08:28:03.647Z,19.57
2018-03-24T08:30:09.824Z,19.33
2018-03-24T08:32:13.886Z,20.47
2018-03-24T08:34:24.778Z,26.17
2018-03-24T08:36:30.871Z,27.40
2018-03-24T08:38:45.648Z,30.50
2018-03-24T08:40:51.929Z,26.90
2018-03-24T08:42:58.290Z,23.40
2018-03-24T08:45:02.325Z,18.80
2018-03-24T08:47:06.362Z,19.27
2018-03-24T08:49:10.428Z,19.17
2018-03-24T08:51:14.476Z,18.70
2018-03-24T08:53:18.519Z,18.17
2018-03-24T08:55:22.524Z,18.43
2018-03-24T08:57:26.536Z,18.20
2018-03-24T08:59:30.563Z,17.17
2018-03-24T09:01:34.579Z,16.73
2018-03-24T09:03:38.632Z,18.50
2018-03-24T09:05:42.747Z,16.37
2018-03-24T09:07:46.787Z,20.10
2018-03-24T09:09:50.831Z,16.93
2018-03-24T09:11:54.845Z,15.63
2018-03-24T09:13:58.917Z,16.17
2018-03-24T09:16:03.004Z,15.47
2018-03-24T09:18:07.003Z,16.27
2018-03-24T09:20:11.045Z,18.00
2018-03-24T09:22:15.113Z,17.47
2018-03-24T09:24:19.109Z,20.20
2018-03-24T09:26:23.128Z,18.17
2018-03-24T09:28:27.145Z,17.50
2018-03-24T09:30:31.186Z,17.43
2018-03-24T09:32:35.224Z,17.53
2018-03-24T09:34:39.237Z,18.00
2018-03-24T09:36:43.264Z,22.97
2018-03-24T09:38:47.273Z,20.90
2018-03-24T09:40:51.286Z,24.80
2018-03-24T09:42:55.275Z,19.17
2018-03-24T09:44:59.310Z,26.30
2018-03-24T09:47:03.388Z,25.40
2018-03-24T09:49:07.458Z,23.67
2018-03-24T09:51:11.481Z,23.80
2018-03-24T09:53:15.492Z,22.17
2018-03-24T09:55:19.501Z,23.30
2018-03-24T09:57:23.528Z,25.80
2018-03-24T09:59:27.526Z,24.40
2018-03-24T10:01:31.534Z,25.30
2018-03-24T10:03:35.555Z,29.00
2018-03-24T10:05:39.623Z,26.10
2018-03-24T10:07:43.658Z,22.90
2018-03-24T10:09:47.671Z,25.60
2018-03-24T10:11:51.720Z,20.73
2018-03-24T10:13:55.733Z,22.93
2018-03-24T10:15:59.729Z,22.90
2018-03-24T10:18:03.756Z,26.00
2018-03-24T10:20:07.774Z,27.63
2018-03-24T10:24:43.653Z,30.50
2018-03-24T10:26:47.665Z,29.47
2018-03-24T10:28:51.711Z,31.30
2018-03-24T10:30:55.797Z,29.40
2018-03-24T10:33:01.817Z,29.10
2018-03-24T10:35:08.613Z,27.00
2018-03-24T10:37:12.631Z,33.30
2018-03-24T10:39:16.690Z,29.57
2018-03-24T10:41:20.727Z,27.40
2018-03-24T10:43:30.454Z,31.10
2018-03-24T10:45:34.487Z,23.23
2018-03-24T10:47:38.522Z,21.63
2018-03-24T10:49:42.558Z,28.53
2018-03-24T10:51:46.652Z,25.10
2018-03-24T10:53:50.708Z,25.00
2018-03-24T10:55:54.752Z,24.60
2018-03-24T10:57:58.773Z,25.40
2018-03-24T11:00:02.828Z,24.93
2018-03-24T11:02:06.865Z,28.40
2018-03-24T11:04:10.942Z,27.77
2018-03-24T11:06:14.963Z,24.47
2018-03-24T11:08:18.981Z,25.93
2018-03-24T11:10:23.022Z,24.37
2018-03-24T11:12:27.078Z,27.87
2018-03-24T11:14:31.085Z,22.23
2018-03-24T11:16:35.125Z,24.03
2018-03-24T11:18:39.150Z,24.13
2018-03-24T11:20:43.204Z,25.90
2018-03-24T11:22:47.217Z,29.03
2018-03-24T11:24:51.247Z,31.90
2018-03-24T11:26:55.262Z,28.80
2018-03-24T11:28:59.307Z,28.47
2018-03-24T11:31:03.522Z,26.93
2018-03-24T11:33:07.560Z,29.90
2018-03-24T11:35:11.593Z,24.43
2018-03-24T11:37:15.642Z,23.03
2018-03-24T11:39:19.647Z,21.90
2018-03-24T11:41:23.702Z,23.97
2018-03-24T11:43:27.709Z,24.13
2018-03-24T11:45:31.731Z,23.20
2018-03-24T11:47:35.766Z,24.90
2018-03-24T11:49:39.794Z,25.40
2018-03-24T11:51:43.848Z,23.47
2018-03-24T11:53:47.928Z,25.50
2018-03-24T11:55:51.956Z,23.83
2018-03-24T11:57:55.997Z,23.33
2018-03-24T12:00:05.821Z,22.30
2018-03-24T12:02:09.874Z,23.13
2018-03-24T12:04:13.907Z,22.13
2018-03-24T12:06:17.958Z,21.67
2018-03-24T12:08:22.054Z,23.13
2018-03-24T12:10:26.077Z,20.87
2018-03-24T12:12:30.118Z,26.07
2018-03-24T12:14:34.155Z,22.10
2018-03-24T12:16:38.182Z,23.07
2018-03-24T12:18:42.244Z,26.07
2018-03-24T12:20:46.247Z,20.20
2018-03-24T12:22:50.298Z,23.43
2018-03-24T12:24:54.300Z,24.23
2018-03-24T12:26:58.362Z,30.57
2018-03-24T12:29:02.410Z,24.57
2018-03-24T12:31:06.504Z,22.43
2018-03-24T12:33:10.610Z,19.53
2018-03-24T12:35:14.658Z,23.40
2018-03-24T12:37:18.691Z,20.90
2018-03-24T12:39:25.699Z,24.40
2018-03-24T12:41:29.763Z,25.63
2018-03-24T12:43:33.778Z,23.57
2018-03-24T12:45:37.808Z,21.23
2018-03-24T12:47:42.032Z,22.30
2018-03-24T12:49:47.047Z,18.93
2018-03-24T12:51:54.832Z,23.50
2018-03-24T12:53:59.028Z,20.43
2018-03-24T12:56:03.070Z,21.77
2018-03-24T12:58:07.254Z,25.17
2018-03-24T13:00:11.331Z,19.77
2018-03-24T13:02:15.414Z,19.60
2018-03-24T13:04:19.495Z,20.90
2018-03-24T13:06:23.534Z,19.83
2018-03-24T13:08:27.818Z,19.90
2018-03-24T13:10:31.870Z,19.13
2018-03-24T13:12:36.331Z,18.77
2018-03-24T13:14:43.054Z,17.40
2018-03-24T13:16:47.233Z,20.63
2018-03-24T13:18:51.338Z,15.93
2018-03-24T13:20:55.427Z,17.30
2018-03-24T13:22:59.438Z,14.57
2018-03-24T13:25:03.489Z,18.73
2018-03-24T13:27:07.525Z,16.33
2018-03-24T13:29:11.663Z,18.60
2018-03-24T13:31:15.740Z,15.60
2018-03-24T13:33:19.780Z,17.27
2018-03-24T13:35:23.869Z,14.33
2018-03-24T13:37:28.204Z,12.73
2018-03-24T13:39:32.276Z,15.03
2018-03-24T13:41:36.380Z,12.63
2018-03-24T13:43:40.500Z,12.33
2018-03-24T13:45:44.649Z,13.70
2018-03-24T13:47:48.712Z,14.50
2018-03-24T13:49:52.727Z,17.33
2018-03-24T13:51:57.714Z,14.20
2018-03-24T13:54:01.788Z,17.33
2018-03-24T13:56:05.806Z,16.93
2018-03-24T13:58:09.843Z,14.30
2018-03-24T14:00:15.688Z,17.83
2018-03-24T14:02:19.743Z,15.00
2018-03-24T14:04:23.759Z,14.00
2018-03-24T14:06:27.797Z,15.20
2018-03-24T14:08:31.831Z,16.70
2018-03-24T14:10:35.861Z,15.37
2018-03-24T14:12:39.959Z,13.20
2018-03-24T14:14:43.977Z,11.70
2018-03-24T14:16:47.998Z,11.53
2018-03-24T14:18:52.045Z,11.60
2018-03-24T14:20:56.061Z,11.27
2018-03-24T14:23:00.097Z,11.80
2018-03-24T14:25:04.122Z,12.17
2018-03-24T14:27:08.139Z,9.50
2018-03-24T14:29:12.210Z,10.90
2018-03-24T14:31:16.264Z,10.50
2018-03-24T14:33:20.310Z,15.60
2018-03-24T14:35:24.334Z,12.40
2018-03-24T14:37:28.340Z,15.10
2018-03-24T14:39:32.395Z,13.27
2018-03-24T14:41:36.413Z,16.03
2018-03-24T14:43:40.472Z,15.20
2018-03-24T14:45:44.488Z,15.87
2018-03-24T14:47:48.506Z,18.43
2018-03-24T14:49:52.575Z,12.90
2018-03-24T14:51:56.624Z,14.47
2018-03-24T14:54:05.062Z,16.77
2018-03-24T14:56:09.277Z,17.80
2018-03-24T14:58:13.370Z,15.37
2018-03-24T15:00:17.401Z,14.07
2018-03-24T15:02:21.405Z,14.30
2018-03-24T15:04:25.464Z,14.70
2018-03-24T15:06:29.473Z,16.27
2018-03-24T15:08:33.506Z,15.67
2018-03-24T15:10:37.545Z,16.17
2018-03-24T15:12:41.558Z,13.20
2018-03-24T15:14:45.568Z,13.50
2018-03-24T15:16:49.637Z,12.70
2018-03-24T15:18:53.653Z,13.73
2018-03-24T15:20:57.712Z,17.00
2018-03-24T15:23:01.798Z,14.33
2018-03-24T15:25:05.875Z,12.70
2018-03-24T15:27:10.080Z,11.63
2018-03-24T15:29:23.178Z,13.83
2018-03-24T15:31:33.512Z,14.80
2018-03-24T15:33:43.373Z,13.60
2018-03-24T15:35:54.580Z,12.87
2018-03-24T15:37:58.784Z,12.37
2018-03-24T15:40:02.822Z,14.77
2018-03-24T15:46:52.884Z,14.53
2018-03-24T15:48:56.964Z,14.83
2018-03-24T15:51:01.076Z,14.53
2018-03-24T15:53:05.075Z,14.60
2018-03-24T15:55:09.258Z,10.53
2018-03-24T15:57:13.305Z,16.80
2018-03-24T15:59:17.378Z,13.60
2018-03-24T16:01:21.419Z,13.67
2018-03-24T16:03:25.481Z,14.10
2018-03-24T16:05:29.480Z,14.57
2018-03-24T16:07:33.504Z,12.60
2018-03-24T16:09:37.923Z,15.47
2018-03-24T16:11:41.997Z,15.30
2018-03-24T16:13:46.114Z,13.63
2018-03-24T16:15:50.201Z,13.43
2018-03-24T16:17:54.363Z,12.73
2018-03-24T16:19:58.403Z,12.83
2018-03-24T16:22:02.394Z,14.13
2018-03-24T16:24:06.559Z,12.00
2018-03-24T16:26:10.584Z,13.70
2018-03-24T16:28:14.585Z,13.87
2018-03-24T16:30:18.604Z,14.30
2018-03-24T16:32:22.650Z,12.33
2018-03-24T16:34:26.706Z,16.03
2018-03-24T16:36:30.809Z,12.57
2018-03-24T16:38:37.068Z,14.90
2018-03-24T16:40:42.891Z,13.37
2018-03-24T16:42:47.019Z,12.30
2018-03-24T16:44:51.061Z,12.67
2018-03-24T16:46:55.144Z,15.13
2018-03-24T16:48:59.197Z,13.40
2018-03-24T16:51:03.258Z,14.23
2018-03-24T16:53:07.290Z,12.00
2018-03-24T16:55:11.412Z,15.40
2018-03-24T16:57:15.425Z,18.90
2018-03-24T16:59:19.457Z,14.40
2018-03-24T17:01:23.487Z,15.60
2018-03-24T17:03:27.520Z,16.43
2018-03-24T17:05:31.540Z,15.60
2018-03-24T17:07:35.529Z,13.80
2018-03-24T17:09:39.522Z,14.80
2018-03-24T17:11:43.577Z,13.40
2018-03-24T17:13:47.617Z,22.47
2018-03-24T17:15:51.822Z,17.83
2018-03-24T17:17:55.874Z,14.37
2018-03-24T17:19:59.883Z,16.37
2018-03-24T17:22:03.909Z,13.10
2018-03-24T17:24:07.921Z,15.83
2018-03-24T17:26:11.931Z,17.60
2018-03-24T17:28:15.961Z,13.30
2018-03-24T17:30:19.962Z,16.97
2018-03-24T17:32:23.981Z,17.37
2018-03-24T17:34:27.997Z,21.00
2018-03-24T17:36:32.016Z,19.00
2018-03-24T17:38:36.060Z,16.57
2018-03-24T17:40:40.079Z,20.57
2018-03-24T17:42:44.128Z,24.03
2018-03-24T17:44:48.189Z,21.10
2018-03-24T17:46:52.208Z,28.83
2018-03-24T17:48:56.290Z,15.67
2018-03-24T17:51:00.314Z,15.10
2018-03-24T17:53:04.365Z,14.63
2018-03-24T17:55:08.377Z,16.30
2018-03-24T17:57:12.373Z,14.87
2018-03-24T17:59:16.576Z,19.10
2018-03-24T18:01:20.552Z,20.03
2018-03-24T18:03:24.580Z,17.37
2018-03-24T18:05:28.618Z,24.17
2018-03-24T18:07:32.638Z,20.23
2018-03-24T18:09:36.673Z,16.80
2018-03-24T18:11:40.679Z,24.77
2018-03-24T18:13:44.742Z,16.77
2018-03-24T18:15:48.748Z,17.57
2018-03-24T18:17:52.749Z,21.03
2018-03-24T18:19:56.859Z,16.70
2018-03-24T18:22:00.884Z,24.03
2018-03-24T18:24:04.909Z,18.30
2018-03-24T18:26:08.961Z,18.67
2018-03-24T18:28:13.016Z,19.30
2018-03-24T18:30:17.049Z,17.43
2018-03-24T18:32:21.065Z,15.10
2018-03-24T18:34:25.100Z,18.10
2018-03-24T18:36:29.101Z,19.37
2018-03-24T18:38:33.085Z,22.37
2018-03-24T18:40:37.131Z,19.33
2018-03-24T18:42:41.144Z,14.93
2018-03-24T18:44:45.172Z,19.90
2018-03-24T18:46:49.182Z,21.13
2018-03-24T18:48:53.200Z,20.67
2018-03-24T18:50:57.224Z,21.47
2018-03-24T18:53:01.219Z,18.23
2018-03-24T18:55:05.254Z,13.80
2018-03-24T18:57:10.673Z,16.90
2018-03-24T18:59:14.791Z,21.70
2018-03-24T19:01:18.838Z,18.07
2018-03-24T19:03:22.834Z,15.60
2018-03-24T19:05:31.555Z,17.83
2018-03-24T19:07:35.735Z,17.03
2018-03-24T19:09:39.771Z,18.10
2018-03-24T19:11:43.918Z,19.27
2018-03-24T19:13:47.958Z,15.40
2018-03-24T19:15:51.988Z,17.67
2018-03-24T19:17:56.076Z,15.07
2018-03-24T19:20:00.120Z,16.87
2018-03-24T19:22:04.312Z,22.07
2018-03-24T19:24:10.849Z,16.53
2018-03-24T19:26:15.139Z,17.30
2018-03-24T19:28:20.199Z,15.77
2018-03-24T19:30:24.227Z,20.53
2018-03-24T19:32:28.314Z,23.27
2018-03-24T19:34:32.355Z,25.27
2018-03-24T19:36:37.412Z,22.10
2018-03-24T19:38:41.418Z,23.57
2018-03-24T19:40:46.201Z,25.77
2018-03-24T19:42:50.327Z,28.30
2018-03-24T19:44:55.115Z,28.73
2018-03-24T19:46:59.143Z,25.80
2018-03-24T19:49:04.201Z,31.03
2018-03-24T19:51:08.244Z,34.40
2018-03-24T19:53:12.476Z,31.07
2018-03-24T19:55:16.552Z,30.63
2018-03-24T19:57:21.412Z,31.10
2018-03-24T19:59:25.535Z,33.60
2018-03-24T20:01:29.739Z,33.40
2018-03-24T20:03:34.916Z,33.60
2018-03-24T20:05:39.004Z,33.60
2018-03-24T20:07:43.067Z,34.23
2018-03-24T20:09:47.293Z,36.17
2018-03-24T20:11:51.336Z,33.30
2018-03-24T20:13:55.415Z,34.23
2018-03-24T20:15:59.542Z,32.30
2018-03-24T20:18:03.607Z,29.20
2018-03-24T20:20:08.301Z,28.40
2018-03-24T20:22:12.343Z,24.23
2018-03-24T20:24:16.397Z,29.50
2018-03-24T20:26:20.433Z,24.23
2018-03-24T20:28:24.537Z,34.13
2018-03-24T20:30:29.668Z,28.93
2018-03-24T20:32:34.760Z,29.27
2018-03-24T20:34:38.791Z,27.23
2018-03-24T20:36:42.792Z,33.53
2018-03-24T20:38:46.818Z,28.93
2018-03-24T20:40:52.519Z,29.63
2018-03-24T20:42:56.590Z,31.53
2018-03-24T20:45:00.622Z,31.30
2018-03-24T20:47:04.891Z,33.03
2018-03-24T20:49:09.007Z,34.67
2018-03-24T20:51:13.082Z,39.13
2018-03-24T20:53:17.111Z,33.20
2018-03-24T20:55:21.256Z,46.37
2018-03-24T20:57:25.342Z,45.37
2018-03-24T20:59:29.388Z,53.40
2018-03-24T21:01:33.498Z,51.33
2018-03-24T21:03:37.513Z,53.37
2018-03-24T21:05:41.793Z,54.13
2018-03-24T21:07:45.843Z,43.63
2018-03-24T21:09:50.946Z,49.93
2018-03-24T21:11:55.150Z,39.53
2018-03-24T21:14:00.134Z,40.30
2018-03-24T21:16:04.266Z,40.23
2018-03-24T21:18:08.313Z,32.63
2018-03-24T21:20:12.344Z,42.30
2018-03-24T21:22:16.391Z,44.50
2018-03-24T21:24:20.663Z,45.40
2018-03-24T21:26:24.689Z,47.47
2018-03-24T21:28:30.789Z,56.13
2018-03-24T21:30:34.794Z,42.47
2018-03-24T21:32:38.842Z,43.27
2018-03-24T21:34:43.105Z,44.50
2018-03-24T21:36:47.186Z,49.50
2018-03-24T21:38:51.317Z,42.40
2018-03-24T21:41:00.008Z,42.80
2018-03-24T21:43:04.230Z,41.43
2018-03-24T21:45:08.279Z,36.87
2018-03-24T21:47:12.421Z,39.17
2018-03-24T21:49:16.438Z,43.30
2018-03-24T21:51:20.470Z,43.87
2018-03-24T21:53:24.548Z,71.40
2018-03-24T21:55:28.562Z,39.80
2018-03-24T21:57:32.904Z,46.60
2018-03-24T21:59:36.899Z,39.73
2018-03-24T22:01:40.930Z,45.03
2018-03-24T22:03:45.176Z,40.57
2018-03-24T22:05:49.227Z,37.37
2018-03-24T22:07:53.318Z,36.40
2018-03-24T22:09:57.389Z,36.40
2018-03-24T22:12:01.418Z,36.80
2018-03-24T22:14:05.493Z,36.57
2018-03-24T22:16:09.523Z,39.30
2018-03-24T22:18:13.584Z,34.70
2018-03-24T22:20:17.627Z,33.30
2018-03-24T22:22:21.637Z,37.77
2018-03-24T22:24:25.701Z,33.73
2018-03-24T22:26:29.715Z,35.07
2018-03-24T22:28:33.762Z,31.13
2018-03-24T22:30:37.796Z,29.83
2018-03-24T22:32:42.865Z,35.83
2018-03-24T22:34:46.912Z,27.93
2018-03-24T22:36:50.984Z,37.53
2018-03-24T22:38:55.014Z,34.77
2018-03-24T22:40:59.035Z,35.47
2018-03-24T22:43:03.070Z,32.17
2018-03-24T22:45:07.577Z,31.30
2018-03-24T22:47:11.573Z,38.20
2018-03-24T22:49:15.602Z,48.97
2018-03-24T22:51:19.710Z,55.97
2018-03-24T22:53:23.777Z,46.10
2018-03-24T22:55:27.824Z,54.77
2018-03-24T22:57:31.852Z,42.73
2018-03-24T22:59:35.963Z,41.67
2018-03-24T23:01:40.018Z,44.17
2018-03-24T23:03:44.028Z,38.03
2018-03-24T23:05:48.082Z,37.67
2018-03-24T23:07:52.106Z,39.90
2018-03-24T23:09:56.134Z,35.20
2018-03-24T23:12:00.213Z,36.70
2018-03-24T23:14:04.219Z,35.63
2018-03-24T23:16:08.246Z,31.53
2018-03-24T23:18:12.307Z,35.20
2018-03-24T23:20:16.329Z,34.87
2018-03-24T23:22:20.356Z,35.63
2018-03-24T23:24:24.376Z,35.20
2018-03-24T23:26:28.404Z,37.50
2018-03-24T23:28:32.451Z,38.10
2018-03-24T23:30:36.483Z,39.43
2018-03-24T23:32:40.523Z,34.13
2018-03-24T23:34:44.529Z,37.80
2018-03-24T23:36:48.577Z,36.67
2018-03-24T23:38:52.569Z,35.27
2018-03-24T23:40:56.636Z,37.13
2018-03-24T23:43:00.684Z,30.37
2018-03-24T23:45:04.702Z,32.07
2018-03-24T23:47:08.734Z,35.03
2018-03-24T23:49:12.773Z,38.97
2018-03-24T23:51:16.800Z,32.70
2018-03-24T23:53:20.909Z,31.57
2018-03-24T23:55:24.911Z,35.17
2018-03-24T23:57:28.944Z,34.43
2018-03-24T23:59:33.019Z,31.53
